createdAt,value
2022-12-12T00:02:22.396Z,96248.42
2022-12-12T00:04:57.925Z,96244.89
2022-12-12T00:07:30.264Z,96247.77
2022-12-12T00:10:02.356Z,96249.96
2022-12-12T00:12:34.748Z,96247.44
2022-12-12T00:15:08.024Z,96246.95
2022-12-12T00:17:40.846Z,96242.75
2022-12-12T00:20:13.616Z,96242.08
2022-12-12T00:22:45.824Z,96244.77
2022-12-12T00:25:17.996Z,96253.22
2022-12-12T00:27:51.726Z,96256.42
2022-12-12T00:30:24.416Z,96257.11
2022-12-12T00:32:56.468Z,96255.60
2022-12-12T00:35:28.576Z,96256.10
2022-12-12T00:38:01.226Z,96255.78
2022-12-12T00:40:33.318Z,96254.60
2022-12-12T00:43:05.556Z,96251.23
2022-12-12T00:45:38.178Z,96245.15
2022-12-12T00:48:10.987Z,96243.30
2022-12-12T00:50:43.143Z,96239.75
2022-12-12T00:53:15.274Z,96236.55
2022-12-12T00:55:47.618Z,96234.70
2022-12-12T00:58:19.705Z,96234.19
2022-12-12T01:00:52.196Z,96235.55
2022-12-12T01:03:24.755Z,96238.75
2022-12-12T01:05:57.179Z,96241.13
2022-12-12T01:08:29.481Z,96241.65
2022-12-12T01:11:02.248Z,96239.60
2022-12-12T01:13:34.604Z,96240.96
2022-12-12T01:16:07.616Z,96244.50
2022-12-12T01:18:41.476Z,96242.66
2022-12-12T01:21:15.296Z,96248.23
2022-12-12T01:23:47.617Z,96245.05
2022-12-12T01:26:21.580Z,96238.98
2022-12-12T01:28:54.398Z,96232.05
2022-12-12T01:31:26.598Z,96230.53
2022-12-12T01:33:59.078Z,96227.83
2022-12-12T01:36:31.286Z,96225.98
2022-12-12T01:39:06.139Z,96224.81
2022-12-12T01:41:38.488Z,96224.96
2022-12-12T01:44:42.955Z,96221.59
2022-12-12T01:47:17.177Z,96219.06
2022-12-12T01:49:53.009Z,96216.36
2022-12-12T01:52:32.434Z,96212.48
2022-12-12T01:55:07.086Z,96214.01
2022-12-12T01:57:43.449Z,96210.80
2022-12-12T02:00:17.356Z,96208.10
2022-12-12T02:02:51.724Z,96209.78
2022-12-12T02:05:29.814Z,96204.38
2022-12-12T02:08:03.632Z,96205.73
2022-12-12T02:10:36.340Z,96205.90
2022-12-12T02:13:12.937Z,96208.93
2022-12-12T02:15:48.022Z,96212.81
2022-12-12T02:18:27.765Z,96212.48
2022-12-12T02:21:13.377Z,96213.32
2022-12-12T02:24:33.356Z,96207.75
2022-12-12T02:27:28.323Z,96209.11
2022-12-12T02:30:23.626Z,96208.77
2022-12-12T02:33:10.197Z,96212.48
2022-12-12T02:35:53.916Z,96209.46
2022-12-12T02:38:33.417Z,96209.46
2022-12-12T02:41:19.610Z,96206.74
2022-12-12T02:44:02.566Z,96205.23
2022-12-12T02:46:43.210Z,96203.88
2022-12-12T02:49:21.613Z,96207.27
2022-12-12T02:51:55.176Z,96208.27
2022-12-12T02:54:25.526Z,96207.27
2022-12-12T02:57:00.354Z,96205.06
2022-12-12T02:59:35.997Z,96203.71
2022-12-12T03:02:52.782Z,96203.54
2022-12-12T03:06:01.344Z,96195.61
2022-12-12T03:08:46.557Z,96197.30
2022-12-12T03:11:27.735Z,96198.30
2022-12-12T03:14:09.595Z,96201.68
2022-12-12T03:16:46.308Z,96204.56
2022-12-12T03:19:25.116Z,96201.34
2022-12-12T03:22:04.606Z,96203.20
2022-12-12T03:24:42.876Z,96201.35
2022-12-12T03:27:20.877Z,96197.46
2022-12-12T03:29:58.205Z,96197.63
2022-12-12T03:32:36.768Z,96201.19
2022-12-12T03:35:14.152Z,96200.34
2022-12-12T03:37:52.126Z,96200.84
2022-12-12T03:40:33.767Z,96201.02
2022-12-12T03:43:10.642Z,96201.86
2022-12-12T03:45:47.797Z,96201.52
2022-12-12T03:48:27.523Z,96202.38
2022-12-12T03:51:05.071Z,96201.52
2022-12-12T03:53:42.137Z,96200.50
2022-12-12T03:56:23.356Z,96203.05
2022-12-12T03:59:01.616Z,96202.53
2022-12-12T04:01:42.486Z,96205.77
2022-12-12T04:04:19.736Z,96208.80
2022-12-12T04:06:59.786Z,96208.66
2022-12-12T04:09:50.293Z,96209.84
2022-12-12T04:12:55.714Z,96206.80
2022-12-12T04:15:41.746Z,96210.00
2022-12-12T04:18:21.024Z,96208.15
2022-12-12T04:21:17.539Z,96207.98
2022-12-12T04:23:56.576Z,96207.98
2022-12-12T04:26:43.318Z,96208.15
2022-12-12T04:29:36.444Z,96203.93
2022-12-12T04:32:14.959Z,96204.10
2022-12-12T04:34:53.703Z,96207.14
2022-12-12T04:37:29.160Z,96205.62
2022-12-12T04:40:04.748Z,96206.13
2022-12-12T04:42:44.251Z,96204.77
2022-12-12T04:45:21.122Z,96204.61
2022-12-12T04:47:57.611Z,96203.93
2022-12-12T04:50:32.399Z,96204.95
2022-12-12T04:53:12.203Z,96206.80
2022-12-12T04:55:57.265Z,96207.14
2022-12-12T04:58:30.089Z,96205.95
2022-12-12T05:01:08.783Z,96204.10
2022-12-12T05:03:49.617Z,96201.71
2022-12-12T05:06:25.648Z,96204.06
2022-12-12T05:08:59.199Z,96202.23
2022-12-12T05:11:31.849Z,96208.31
2022-12-12T05:14:04.168Z,96208.30
2022-12-12T05:16:40.204Z,96205.75
2022-12-12T05:19:12.689Z,96209.49
2022-12-12T05:21:45.259Z,96208.96
2022-12-12T05:24:18.098Z,96207.94
2022-12-12T05:26:50.418Z,96210.48
2022-12-12T05:29:22.407Z,96209.11
2022-12-12T05:31:54.960Z,96212.49
2022-12-12T05:34:30.362Z,96211.14
2022-12-12T05:37:04.019Z,96211.14
2022-12-12T05:39:34.430Z,96210.63
2022-12-12T05:42:06.650Z,96212.14
2022-12-12T05:44:39.529Z,96215.01
2022-12-12T05:47:11.749Z,96217.54
2022-12-12T05:49:44.172Z,96220.74
2022-12-12T05:52:17.131Z,96222.77
2022-12-12T05:54:49.490Z,96219.23
2022-12-12T05:57:21.727Z,96223.77
2022-12-12T05:59:54.236Z,96226.14
2022-12-12T06:02:26.527Z,96230.20
2022-12-12T06:04:58.981Z,96230.20
2022-12-12T06:07:31.270Z,96231.20
2022-12-12T06:10:03.579Z,96230.52
2022-12-12T06:12:36.128Z,96232.20
2022-12-12T06:15:10.418Z,96232.69
2022-12-12T06:17:42.888Z,96234.38
2022-12-12T06:20:15.499Z,96235.25
2022-12-12T06:23:07.769Z,96238.96
2022-12-12T06:25:41.420Z,96239.30
2022-12-12T06:28:14.069Z,96238.80
2022-12-12T06:30:46.597Z,96238.98
2022-12-12T06:33:19.740Z,96240.52
2022-12-12T06:36:04.594Z,96241.19
2022-12-12T06:38:37.938Z,96245.91
2022-12-12T06:41:12.428Z,96250.13
2022-12-12T06:43:45.600Z,96251.66
2022-12-12T06:46:20.647Z,96249.63
2022-12-12T06:48:53.920Z,96251.66
2022-12-12T06:51:28.560Z,96251.16
2022-12-12T06:54:01.218Z,96253.19
2022-12-12T06:56:33.475Z,96254.71
2022-12-12T06:59:05.547Z,96254.73
2022-12-12T07:01:37.726Z,96253.73
2022-12-12T07:04:10.131Z,96254.76
2022-12-12T07:06:42.187Z,96254.58
2022-12-12T07:09:14.368Z,96256.12
2022-12-12T07:11:46.962Z,96254.42
2022-12-12T07:14:19.355Z,96262.38
2022-12-12T07:16:51.679Z,96266.94
2022-12-12T07:19:24.271Z,96270.82
2022-12-12T07:21:56.494Z,96272.85
2022-12-12T07:24:29.361Z,96273.02
2022-12-12T07:27:04.711Z,96273.21
2022-12-12T07:29:38.043Z,96274.92
2022-12-12T07:32:10.290Z,96272.57
2022-12-12T07:34:42.427Z,96275.61
2022-12-12T07:37:15.060Z,96278.33
2022-12-12T07:39:49.372Z,96277.30
2022-12-12T07:42:21.474Z,96278.66
2022-12-12T07:44:54.017Z,96279.35
2022-12-12T07:47:26.480Z,96276.83
2022-12-12T07:49:58.653Z,96274.65
2022-12-12T07:52:30.910Z,96276.67
2022-12-12T07:55:03.850Z,96275.33
2022-12-12T07:57:36.001Z,96277.52
2022-12-12T08:00:10.424Z,96276.34
2022-12-12T08:02:45.563Z,96273.64
2022-12-12T08:05:17.949Z,96275.52
2022-12-12T08:07:50.899Z,96275.52
2022-12-12T08:10:23.751Z,96282.27
2022-12-12T08:12:55.911Z,96279.73
2022-12-12T08:15:28.440Z,96282.27
2022-12-12T08:18:00.929Z,96278.40
2022-12-12T08:20:33.540Z,96282.28
2022-12-12T08:23:06.676Z,96286.51
2022-12-12T08:25:42.159Z,96288.02
2022-12-12T08:28:16.579Z,96290.23
2022-12-12T08:30:53.056Z,96291.92
2022-12-12T08:33:30.009Z,96288.36
2022-12-12T08:36:02.314Z,96286.50
2022-12-12T08:38:34.351Z,96287.84
2022-12-12T08:41:06.928Z,96287.66
2022-12-12T08:43:39.550Z,96291.21
2022-12-12T08:46:17.495Z,96290.54
2022-12-12T08:48:51.459Z,96294.77
2022-12-12T08:51:23.919Z,96294.26
2022-12-12T08:53:56.480Z,96299.51
2022-12-12T08:56:28.765Z,96298.50
2022-12-12T08:59:04.021Z,96295.95
2022-12-12T09:01:36.940Z,96293.40
2022-12-12T09:04:12.123Z,96292.22
2022-12-12T09:06:46.000Z,96294.08
2022-12-12T09:09:18.648Z,96294.57
2022-12-12T09:11:51.160Z,96292.87
2022-12-12T09:14:23.456Z,96297.77
2022-12-12T09:16:56.078Z,96295.41
2022-12-12T09:19:31.272Z,96295.40
2022-12-12T09:22:04.498Z,96294.20
2022-12-12T09:24:37.547Z,96292.17
2022-12-12T09:27:10.806Z,96293.54
2022-12-12T09:29:43.151Z,96295.73
2022-12-12T09:32:16.684Z,96295.52
2022-12-12T09:34:51.666Z,96296.20
2022-12-12T09:37:23.846Z,96295.85
2022-12-12T09:39:56.059Z,96296.02
2022-12-12T09:42:33.121Z,96293.98
2022-12-12T09:45:10.510Z,96293.83
2022-12-12T09:47:47.281Z,96291.77
2022-12-12T09:50:26.574Z,96289.05
2022-12-12T09:53:02.332Z,96285.17
2022-12-12T09:55:45.302Z,96290.58
2022-12-12T09:58:25.314Z,96290.23
2022-12-12T10:01:06.377Z,96291.93
2022-12-12T10:03:52.309Z,96293.13
2022-12-12T10:06:40.386Z,96290.08
2022-12-12T10:09:29.660Z,96291.08
2022-12-12T10:12:08.372Z,96289.39
2022-12-12T10:14:44.093Z,96285.69
2022-12-12T10:17:20.602Z,96282.29
2022-12-12T10:19:56.003Z,96282.30
2022-12-12T10:22:37.474Z,96282.27
2022-12-12T10:25:20.999Z,96283.95
2022-12-12T10:27:56.562Z,96284.83
2022-12-12T10:30:31.217Z,96286.19
2022-12-12T10:33:22.140Z,96284.67
2022-12-12T10:36:02.540Z,96286.67
2022-12-12T10:38:50.838Z,96282.27
2022-12-12T10:41:40.727Z,96279.40
2022-12-12T10:44:22.970Z,96282.77
2022-12-12T10:47:04.587Z,96281.61
2022-12-12T10:49:37.650Z,96276.02
2022-12-12T10:52:18.797Z,96279.91
2022-12-12T10:54:53.761Z,96277.18
2022-12-12T10:57:27.221Z,96277.04
2022-12-12T11:00:00.305Z,96275.85
2022-12-12T11:02:39.769Z,96274.15
2022-12-12T11:05:18.383Z,96275.16
2022-12-12T11:07:59.499Z,96275.31
2022-12-12T11:10:34.502Z,96276.17
2022-12-12T11:13:18.172Z,96275.16
2022-12-12T11:15:55.050Z,96276.36
2022-12-12T11:18:27.936Z,96280.92
2022-12-12T11:21:14.533Z,96280.24
2022-12-12T11:23:54.011Z,96279.58
2022-12-12T11:26:28.559Z,96284.16
2022-12-12T11:29:06.531Z,96282.63
2022-12-12T11:31:38.957Z,96283.13
2022-12-12T11:34:17.149Z,96282.95
2022-12-12T11:36:49.691Z,96280.23
2022-12-12T11:39:28.738Z,96282.93
2022-12-12T11:42:06.020Z,96282.27
2022-12-12T11:44:40.720Z,96279.73
2022-12-12T11:47:30.902Z,96279.40
2022-12-12T11:50:10.663Z,96280.23
2022-12-12T11:52:43.177Z,96280.40
2022-12-12T11:55:18.952Z,96283.11
2022-12-12T11:58:17.468Z,96280.92
2022-12-12T12:00:59.189Z,96279.91
2022-12-12T12:03:52.437Z,96282.45
2022-12-12T12:06:38.549Z,96287.04
2022-12-12T12:09:26.120Z,96288.73
2022-12-12T12:12:05.909Z,96288.90
2022-12-12T12:15:00.690Z,96289.41
2022-12-12T12:17:53.279Z,96289.59
2022-12-12T12:20:34.030Z,96292.29
2022-12-12T12:23:16.426Z,96291.61
2022-12-12T12:25:59.114Z,96290.09
2022-12-12T12:28:55.480Z,96291.11
2022-12-12T12:31:34.298Z,96290.77
2022-12-12T12:34:19.043Z,96292.63
2022-12-12T12:37:09.884Z,96287.02
2022-12-12T12:40:00.510Z,96291.60
2022-12-12T12:42:49.946Z,96296.17
2022-12-12T12:45:30.098Z,96297.68
2022-12-12T12:48:13.251Z,96294.98
2022-12-12T12:50:50.222Z,96299.22
2022-12-12T12:53:31.488Z,96301.44
2022-12-12T12:56:22.294Z,96297.70
2022-12-12T12:59:02.900Z,96300.77
2022-12-12T13:01:41.001Z,96298.55
2022-12-12T13:04:20.250Z,96300.44
2022-12-12T13:06:58.189Z,96303.31
2022-12-12T13:09:43.221Z,96307.05
2022-12-12T13:12:20.200Z,96305.17
2022-12-12T13:15:00.199Z,96307.55
2022-12-12T13:17:46.310Z,96310.61
2022-12-12T13:20:22.964Z,96311.94
2022-12-12T13:23:06.293Z,96313.64
2022-12-12T13:25:45.419Z,96314.33
2022-12-12T13:28:21.120Z,96318.20
2022-12-12T13:31:13.028Z,96317.88
2022-12-12T13:33:49.220Z,96322.79
2022-12-12T13:36:30.189Z,96326.51
2022-12-12T13:39:07.812Z,96329.22
2022-12-12T13:42:01.949Z,96329.55
2022-12-12T13:44:40.258Z,96331.09
2022-12-12T13:47:44.961Z,96331.09
2022-12-12T13:50:24.800Z,96334.83
2022-12-12T13:53:22.550Z,96336.01
2022-12-12T13:56:31.840Z,96339.91
2022-12-12T13:59:05.012Z,96336.18
2022-12-12T14:01:41.236Z,96339.75
2022-12-12T14:07:24.271Z,96347.02
2022-12-12T14:09:59.701Z,96351.10
2022-12-12T14:12:37.562Z,96351.77
2022-12-12T14:15:21.028Z,96352.98
2022-12-12T14:18:00.348Z,96354.16
2022-12-12T14:20:39.222Z,96355.01
2022-12-12T14:23:24.960Z,96357.20
2022-12-12T14:25:57.789Z,96358.23
2022-12-12T14:28:33.033Z,96358.73
2022-12-12T14:31:18.732Z,96364.83
2022-12-12T14:34:24.763Z,96366.70
2022-12-12T14:37:31.090Z,96366.70
2022-12-12T14:40:13.162Z,96367.38
2022-12-12T14:43:18.759Z,96367.05
2022-12-12T14:45:53.678Z,96367.05
2022-12-12T14:48:28.031Z,96366.53
2022-12-12T14:51:10.797Z,96369.93
2022-12-12T14:53:56.308Z,96368.58
2022-12-12T14:56:31.901Z,96369.25
2022-12-12T14:59:07.390Z,96374.33
2022-12-12T15:01:44.039Z,96377.71
2022-12-12T15:04:21.558Z,96380.76
2022-12-12T15:06:55.908Z,96383.13
2022-12-12T15:09:30.813Z,96391.92
2022-12-12T15:12:17.600Z,96394.96
2022-12-12T15:14:58.359Z,96398.36
2022-12-12T15:17:34.410Z,96398.53
2022-12-12T15:20:09.812Z,96399.55
2022-12-12T15:22:53.422Z,96401.41
2022-12-12T15:25:27.664Z,96404.78
2022-12-12T15:28:00.570Z,96402.24
2022-12-12T15:30:37.539Z,96407.15
2022-12-12T15:33:17.642Z,96406.65
2022-12-12T15:35:59.805Z,96409.71
2022-12-12T15:38:34.523Z,96409.88
2022-12-12T15:41:13.308Z,96408.17
2022-12-12T15:43:46.202Z,96410.73
2022-12-12T15:46:19.039Z,96410.22
2022-12-12T15:48:51.803Z,96413.11
2022-12-12T15:51:29.940Z,96415.48
2022-12-12T15:54:04.334Z,96413.95
2022-12-12T15:56:36.279Z,96411.75
2022-12-12T15:59:24.110Z,96414.45
2022-12-12T16:01:56.426Z,96415.47
2022-12-12T16:04:28.626Z,96419.02
2022-12-12T16:07:22.755Z,96421.89
2022-12-12T16:10:22.962Z,96420.20
2022-12-12T16:13:04.115Z,96423.59
2022-12-12T16:15:38.708Z,96427.14
2022-12-12T16:18:19.508Z,96428.33
2022-12-12T16:20:54.183Z,96427.13
2022-12-12T16:23:31.825Z,96431.02
2022-12-12T16:26:03.841Z,96433.40
2022-12-12T16:28:36.151Z,96433.06
2022-12-12T16:31:15.239Z,96434.92
2022-12-12T16:33:48.160Z,96436.46
2022-12-12T16:36:20.259Z,96436.96
2022-12-12T16:38:52.260Z,96441.38
2022-12-12T16:41:24.361Z,96443.57
2022-12-12T16:43:57.139Z,96442.39
2022-12-12T16:46:29.911Z,96445.77
2022-12-12T16:49:04.894Z,96448.65
2022-12-12T16:51:41.207Z,96455.44
2022-12-12T16:54:18.445Z,96454.59
2022-12-12T16:56:52.879Z,96457.13
2022-12-12T16:59:25.122Z,96458.98
2022-12-12T17:01:57.089Z,96463.73
2022-12-12T17:04:31.396Z,96466.79
2022-12-12T17:07:08.289Z,96471.52
2022-12-12T17:09:40.391Z,96472.19
2022-12-12T17:12:13.484Z,96474.58
2022-12-12T17:14:46.050Z,96478.81
2022-12-12T17:17:18.531Z,96478.80
2022-12-12T17:19:50.581Z,96477.27
2022-12-12T17:22:22.696Z,96479.14
2022-12-12T17:24:55.240Z,96482.70
2022-12-12T17:27:27.359Z,96480.33
2022-12-12T17:30:00.229Z,96481.51
2022-12-12T17:32:32.329Z,96483.20
2022-12-12T17:35:05.291Z,96486.09
2022-12-12T17:37:37.662Z,96487.61
2022-12-12T17:40:12.588Z,96487.27
2022-12-12T17:42:44.907Z,96486.59
2022-12-12T17:45:17.471Z,96494.05
2022-12-12T17:47:49.551Z,96495.23
2022-12-12T17:50:21.911Z,96498.30
2022-12-12T17:52:54.229Z,96500.83
2022-12-12T17:55:54.128Z,96501.67
2022-12-12T17:58:18.460Z,96504.05
2022-12-12T18:00:50.868Z,96503.04
2022-12-12T18:03:23.239Z,96506.59
2022-12-12T18:05:55.458Z,96508.29
2022-12-12T18:08:27.659Z,96507.61
2022-12-12T18:11:00.097Z,96511.17
2022-12-12T18:13:32.089Z,96513.20
2022-12-12T18:16:06.179Z,96517.95
2022-12-12T18:18:39.759Z,96520.83
2022-12-12T18:21:23.655Z,96522.70
2022-12-12T18:24:07.759Z,96526.77
2022-12-12T18:26:40.836Z,96529.63
2022-12-12T18:29:15.077Z,96533.53
2022-12-12T18:31:47.567Z,96536.40
2022-12-12T18:34:20.050Z,96536.41
2022-12-12T18:36:52.633Z,96539.12
2022-12-12T18:39:24.623Z,96542.51
2022-12-12T18:41:56.770Z,96548.27
2022-12-12T18:44:28.931Z,96548.60
2022-12-12T18:47:01.344Z,96553.02
2022-12-12T18:49:33.441Z,96555.39
2022-12-12T18:52:07.460Z,96559.61
2022-12-12T18:54:39.738Z,96559.27
2022-12-12T18:57:11.852Z,96562.48
2022-12-12T18:59:44.027Z,96563.69
2022-12-12T19:02:17.888Z,96568.27
2022-12-12T19:04:50.717Z,96566.39
2022-12-12T19:07:23.638Z,96570.46
2022-12-12T19:09:55.776Z,96574.19
2022-12-12T19:12:28.409Z,96576.91
2022-12-12T19:15:16.181Z,96579.61
2022-12-12T19:17:49.509Z,96581.48
2022-12-12T19:20:22.526Z,96584.52
2022-12-12T19:22:54.559Z,96592.66
2022-12-12T19:25:26.601Z,96595.04
2022-12-12T19:27:59.959Z,96600.96
2022-12-12T19:30:34.204Z,96606.55
2022-12-12T19:33:06.618Z,96608.94
2022-12-12T19:35:40.994Z,96608.59
2022-12-12T19:38:13.719Z,96611.64
2022-12-12T19:40:45.931Z,96615.20
2022-12-12T19:43:18.169Z,96615.54
2022-12-12T19:46:04.089Z,96615.38
2022-12-12T19:48:36.360Z,96619.60
2022-12-12T19:51:11.866Z,96624.69
2022-12-12T19:53:46.337Z,96624.69
2022-12-12T19:56:23.683Z,96629.27
2022-12-12T19:58:56.710Z,96630.96
2022-12-12T20:01:30.781Z,96636.55
2022-12-12T20:04:05.860Z,96637.06
2022-12-12T20:06:46.061Z,96644.67
2022-12-12T20:09:21.539Z,96647.05
2022-12-12T20:11:54.341Z,96648.92
2022-12-12T20:14:28.710Z,96653.66
2022-12-12T20:17:04.950Z,96655.17
2022-12-12T20:19:37.241Z,96659.41
2022-12-12T20:22:09.541Z,96661.95
2022-12-12T20:24:41.941Z,96662.30
2022-12-12T20:27:15.585Z,96661.27
2022-12-12T20:29:46.229Z,96665.16
2022-12-12T20:32:20.106Z,96664.97
2022-12-12T20:34:54.621Z,96667.00
2022-12-12T20:37:24.789Z,96673.77
2022-12-12T20:39:58.503Z,96674.27
2022-12-12T20:42:30.560Z,96672.59
2022-12-12T20:45:03.558Z,96675.48
2022-12-12T20:47:37.073Z,96679.02
2022-12-12T20:50:14.380Z,96674.96
2022-12-12T20:52:48.091Z,96678.35
2022-12-12T20:55:22.842Z,96679.88
2022-12-12T20:57:55.762Z,96681.57
2022-12-12T21:00:30.080Z,96684.95
2022-12-12T21:03:02.576Z,96687.83
2022-12-12T21:05:35.341Z,96692.58
2022-12-12T21:08:07.924Z,96694.10
2022-12-12T21:10:40.188Z,96696.14
2022-12-12T21:13:12.406Z,96701.56
2022-12-12T21:15:44.695Z,96703.42
2022-12-12T21:18:17.000Z,96706.14
2022-12-12T21:20:49.265Z,96713.09
2022-12-12T21:23:21.488Z,96713.59
2022-12-12T21:25:55.019Z,96714.09
2022-12-12T21:28:27.281Z,96718.16
2022-12-12T21:31:03.273Z,96719.52
2022-12-12T21:33:36.480Z,96723.59
2022-12-12T21:36:12.830Z,96726.13
2022-12-12T21:38:48.479Z,96729.67
2022-12-12T21:41:22.289Z,96736.45
2022-12-12T21:43:54.516Z,96738.15
2022-12-12T21:46:28.795Z,96743.57
2022-12-12T21:49:18.809Z,96748.80
2022-12-12T21:51:53.249Z,96752.37
2022-12-12T21:54:26.271Z,96749.31
2022-12-12T21:56:59.411Z,96755.23
2022-12-12T21:59:32.859Z,96754.05
2022-12-12T22:02:03.556Z,96753.71
2022-12-12T22:04:35.728Z,96757.42
2022-12-12T22:07:12.924Z,96756.08
2022-12-12T22:09:57.210Z,96756.08
2022-12-12T22:12:37.901Z,96754.55
2022-12-12T22:15:14.496Z,96761.84
2022-12-12T22:17:50.610Z,96760.31
2022-12-12T22:20:22.958Z,96760.98
2022-12-12T22:22:55.129Z,96762.00
2022-12-12T22:25:27.350Z,96766.91
2022-12-12T22:28:00.721Z,96768.58
2022-12-12T22:30:33.500Z,96768.73
2022-12-12T22:33:05.699Z,96770.09
2022-12-12T22:35:37.809Z,96765.15
2022-12-12T22:38:10.148Z,96765.98
2022-12-12T22:40:42.166Z,96773.60
2022-12-12T22:43:14.149Z,96773.76
2022-12-12T22:45:46.960Z,96775.62
2022-12-12T22:48:19.368Z,96777.64
2022-12-12T22:50:53.042Z,96780.00
2022-12-12T22:53:23.560Z,96785.58
2022-12-12T22:55:55.771Z,96788.61
2022-12-12T22:58:28.121Z,96794.38
2022-12-12T23:01:06.680Z,96798.45
2022-12-12T23:03:39.002Z,96799.61
2022-12-12T23:06:14.809Z,96798.26
2022-12-12T23:08:50.722Z,96802.11
2022-12-12T23:11:24.910Z,96803.77
2022-12-12T23:14:00.901Z,96804.60
2022-12-12T23:16:35.664Z,96809.01
2022-12-12T23:19:10.493Z,96807.83
2022-12-12T23:21:42.700Z,96810.87
2022-12-12T23:24:15.344Z,96815.45
2022-12-12T23:26:47.502Z,96813.91
2022-12-12T23:29:21.188Z,96816.45
2022-12-12T23:31:51.643Z,96821.54
2022-12-12T23:34:26.457Z,96821.48
2022-12-12T23:37:01.359Z,96821.83
2022-12-12T23:39:33.690Z,96825.73
2022-12-12T23:42:05.883Z,96829.79
2022-12-12T23:44:38.120Z,96830.98
2022-12-12T23:47:10.486Z,96828.60
2022-12-12T23:49:43.710Z,96829.77
2022-12-12T23:52:15.680Z,96834.35
2022-12-12T23:54:48.769Z,96838.58
2022-12-12T23:57:21.391Z,96842.82
2022-12-12T23:59:55.100Z,96845.01
